createdAt,value
2023-03-22T00:02:22.321Z,29.95
2023-03-22T00:07:16.928Z,35.25
2023-03-22T00:12:10.193Z,32.28
2023-03-22T00:17:03.387Z,32.95
2023-03-22T00:21:56.821Z,31.50
2023-03-22T00:26:51.354Z,32.50
2023-03-22T00:31:45.574Z,36.35
2023-03-22T00:36:38.793Z,34.65
2023-03-22T00:41:32.044Z,36.60
2023-03-22T00:46:27.251Z,38.28
2023-03-22T00:51:20.487Z,42.97
2023-03-22T00:56:16.884Z,36.38
2023-03-22T01:01:17.275Z,37.20
2023-03-22T01:06:12.420Z,41.33
2023-03-22T01:11:07.203Z,40.92
2023-03-22T01:16:00.466Z,38.33
2023-03-22T01:20:54.020Z,42.25
2023-03-22T01:25:48.792Z,36.67
2023-03-22T01:30:42.942Z,38.13
2023-03-22T01:35:37.035Z,34.55
2023-03-22T01:40:31.756Z,37.53
2023-03-22T01:45:40.192Z,33.63
2023-03-22T01:50:34.068Z,33.92
2023-03-22T01:55:28.271Z,32.72
2023-03-22T02:00:42.466Z,36.53
2023-03-22T02:05:49.016Z,38.08
2023-03-22T02:10:46.695Z,33.22
2023-03-22T02:15:49.107Z,35.35
2023-03-22T02:21:33.865Z,36.53
2023-03-22T02:27:00.536Z,35.67
2023-03-22T02:32:25.956Z,33.40
2023-03-22T02:37:44.327Z,33.88
2023-03-22T02:42:49.393Z,33.40
2023-03-22T02:47:49.323Z,33.45
2023-03-22T02:52:49.901Z,36.45
2023-03-22T02:57:51.656Z,32.20
2023-03-22T03:02:50.165Z,33.63
2023-03-22T03:07:46.904Z,32.83
2023-03-22T03:12:40.343Z,30.38
2023-03-22T03:17:49.640Z,34.88
2023-03-22T03:22:52.182Z,32.08
2023-03-22T03:27:57.693Z,32.92
2023-03-22T03:32:55.876Z,31.60
2023-03-22T03:37:52.758Z,30.95
2023-03-22T03:42:50.350Z,34.33
2023-03-22T03:47:44.701Z,36.85
2023-03-22T03:52:39.919Z,40.97
2023-03-22T03:57:33.271Z,36.83
2023-03-22T04:02:26.878Z,36.17
2023-03-22T04:07:23.821Z,38.95
2023-03-22T04:12:18.726Z,42.55
2023-03-22T04:17:32.241Z,40.13
2023-03-22T04:22:26.877Z,42.92
2023-03-22T04:27:25.060Z,37.55
2023-03-22T04:32:27.880Z,35.90
2023-03-22T04:37:26.961Z,38.33
2023-03-22T04:42:40.628Z,37.45
2023-03-22T04:47:52.258Z,32.30
2023-03-22T04:52:48.337Z,33.42
2023-03-22T04:57:43.339Z,34.97
2023-03-22T05:02:41.988Z,35.50
2023-03-22T05:07:43.720Z,38.47
2023-03-22T05:12:37.194Z,39.63
2023-03-22T05:17:57.967Z,36.28
2023-03-22T05:22:51.534Z,36.22
2023-03-22T05:27:46.599Z,39.60
2023-03-22T05:33:05.255Z,35.25
2023-03-22T05:38:09.573Z,35.53
2023-03-22T05:43:07.787Z,35.00
2023-03-22T05:48:05.192Z,38.30
2023-03-22T05:53:05.577Z,39.33
2023-03-22T05:58:19.143Z,34.80
2023-03-22T06:08:14.683Z,27.48
2023-03-22T06:13:08.268Z,27.38
2023-03-22T06:18:11.541Z,22.92
2023-03-22T06:23:10.706Z,27.75
2023-03-22T06:28:08.875Z,26.30
2023-03-22T06:33:05.339Z,24.27
2023-03-22T06:38:02.285Z,24.65
2023-03-22T06:42:57.077Z,23.60
2023-03-22T06:47:54.024Z,23.33
2023-03-22T06:53:13.625Z,22.83
2023-03-22T06:58:08.744Z,20.95
2023-03-22T07:03:02.516Z,22.17
2023-03-22T07:08:04.731Z,23.77
2023-03-22T07:12:59.582Z,27.55
2023-03-22T07:17:54.915Z,28.58
2023-03-22T07:22:48.374Z,30.88
2023-03-22T07:27:42.711Z,30.30
2023-03-22T07:33:34.387Z,28.63
2023-03-22T07:38:32.783Z,27.40
2023-03-22T07:43:28.428Z,32.45
2023-03-22T07:48:24.935Z,21.58
2023-03-22T07:53:45.710Z,25.23
2023-03-22T07:58:42.587Z,17.80
2023-03-22T08:03:41.190Z,21.98
2023-03-22T08:08:49.173Z,19.63
2023-03-22T08:13:45.895Z,18.50
2023-03-22T08:18:50.848Z,21.83
2023-03-22T08:23:50.570Z,18.92
2023-03-22T08:29:20.135Z,20.70
2023-03-22T08:34:32.724Z,23.58
2023-03-22T08:39:30.683Z,19.10
2023-03-22T08:44:52.291Z,16.42
2023-03-22T08:50:04.618Z,15.25
2023-03-22T08:55:12.259Z,13.88
2023-03-22T09:00:33.932Z,19.05
2023-03-22T09:06:07.099Z,22.40
2023-03-22T09:11:07.726Z,14.65
2023-03-22T09:16:05.934Z,16.92
2023-03-22T09:26:35.938Z,20.02
2023-03-22T09:31:32.412Z,24.60
2023-03-22T09:36:47.909Z,21.20
2023-03-22T09:41:56.690Z,21.02
2023-03-22T09:47:35.862Z,24.23
2023-03-22T09:52:43.520Z,20.85
2023-03-22T09:58:02.878Z,26.70
2023-03-22T10:03:11.097Z,19.05
2023-03-22T10:08:22.966Z,19.30
2023-03-22T10:13:35.595Z,16.83
2023-03-22T10:18:34.651Z,17.58
2023-03-22T10:23:58.243Z,17.60
2023-03-22T10:29:05.331Z,16.10
2023-03-22T10:34:27.666Z,29.65
2023-03-22T10:39:43.002Z,19.80
2023-03-22T10:44:51.953Z,14.45
2023-03-22T10:49:50.065Z,13.70
2023-03-22T10:54:52.692Z,12.82
2023-03-22T11:00:00.671Z,13.67
2023-03-22T11:05:05.220Z,13.50
2023-03-22T11:10:17.686Z,14.27
2023-03-22T11:15:23.941Z,12.13
2023-03-22T11:20:23.211Z,14.18
2023-03-22T11:25:23.115Z,15.70
2023-03-22T11:30:33.405Z,15.40
2023-03-22T11:35:31.182Z,16.02
2023-03-22T11:40:29.798Z,18.30
2023-03-22T11:45:35.045Z,17.35
2023-03-22T11:50:38.903Z,25.58
2023-03-22T11:55:36.462Z,24.77
2023-03-22T12:00:37.750Z,22.10
2023-03-22T12:05:33.455Z,25.42
2023-03-22T12:10:31.365Z,16.77
2023-03-22T12:15:27.548Z,21.98
2023-03-22T12:20:39.483Z,23.20
2023-03-22T12:25:37.407Z,20.67
2023-03-22T12:30:39.388Z,20.27
2023-03-22T12:36:00.648Z,22.00
2023-03-22T12:41:05.920Z,18.50
2023-03-22T12:46:04.631Z,22.20
2023-03-22T12:51:04.358Z,22.13
2023-03-22T12:55:58.715Z,22.00
2023-03-22T13:00:57.562Z,21.83
2023-03-22T13:06:00.635Z,21.08
2023-03-22T13:11:11.212Z,16.35
2023-03-22T13:16:17.750Z,19.08
2023-03-22T13:21:19.566Z,19.20
2023-03-22T13:26:17.256Z,17.73
2023-03-22T13:31:40.892Z,18.92
2023-03-22T13:36:38.774Z,17.23
2023-03-22T13:42:03.312Z,19.95
2023-03-22T13:47:39.827Z,19.40
2023-03-22T13:52:50.168Z,18.48
2023-03-22T13:58:07.472Z,13.48
2023-03-22T14:03:13.371Z,12.43
2023-03-22T14:08:14.813Z,13.00
2023-03-22T14:13:26.441Z,10.88
2023-03-22T14:19:25.635Z,12.05
